Time;durP1;ratioP1;P1;durP2;ratioP2;P2;SDS_P1;SDS_P2;PMS_P1;PMS_P2;Temp;Humidity;BMP_temperature;BMP_pressure;BME280_temperature;BME280_humidity;BME280_pressure;Samples;Min_cycle;Max_cycle;Signal;HPM_P1;HPM_P2
2022/12/21 00:02:03;;;;;;;6.20;3.97;;;10.20;99.90;;;-144.05;87.86;125687.94;5033127;28;20069;-78
2022/12/21 00:04:30;;;;;;;6.47;4.85;;;10.20;99.90;;;-144.05;87.93;125687.94;5033586;28;20025;-77
2022/12/21 00:06:56;;;;;;;6.00;4.43;;;10.20;99.90;;;-144.05;88.40;125687.94;5033391;28;20029;-78
2022/12/21 00:09:23;;;;;;;6.22;4.57;;;10.20;99.90;;;-144.05;88.07;125687.94;5033226;28;20495;-77
2022/12/21 00:11:49;;;;;;;7.57;4.63;;;10.20;99.90;;;-144.05;87.77;125687.94;5033057;28;20021;-77
2022/12/21 00:14:16;;;;;;;7.57;4.90;;;10.20;99.90;;;-144.05;87.47;125687.94;5032100;28;20036;-78
2022/12/21 00:16:43;;;;;;;6.43;5.18;;;10.10;99.90;;;-144.05;87.40;125687.94;5038569;28;20029;-75
2022/12/21 00:19:14;;;;;;;8.50;6.20;;;10.10;99.90;;;-144.05;87.68;125687.94;5041327;28;20064;-77
2022/12/21 00:21:40;;;;;;;7.78;6.22;;;10.10;99.90;;;-144.05;87.87;125687.94;5033379;28;20087;-77
2022/12/21 00:24:06;;;;;;;8.80;6.25;;;10.10;99.90;;;-144.05;88.02;125687.94;5033337;28;20038;-77
2022/12/21 00:26:37;;;;;;;11.30;6.85;;;10.10;99.90;;;-144.05;87.98;125687.94;5033176;28;20087;-77
2022/12/21 00:29:05;;;;;;;12.98;8.15;;;10.10;99.90;;;-144.05;87.90;125687.94;5033176;28;20026;-78
2022/12/21 00:31:39;;;;;;;10.98;8.38;;;10.10;99.90;;;-144.05;87.98;125687.94;5033633;28;20030;-78
2022/12/21 00:34:04;;;;;;;13.68;8.95;;;10.10;99.90;;;-144.05;88.18;125687.94;5033700;28;20112;-77
2022/12/21 00:36:31;;;;;;;12.65;9.30;;;10.10;99.90;;;-144.05;88.15;125687.94;5033747;28;20096;-77
2022/12/21 00:38:59;;;;;;;14.80;10.35;;;10.00;99.90;;;-144.05;88.42;125687.94;5033124;28;20492;-78
2022/12/21 00:41:27;;;;;;;14.18;10.65;;;10.00;99.90;;;-144.05;88.58;125687.94;5032920;28;20083;-77
2022/12/21 00:43:55;;;;;;;15.65;11.00;;;10.10;99.90;;;-144.05;88.85;125687.94;5034448;28;20026;-76
2022/12/21 00:46:30;;;;;;;16.50;11.02;;;10.00;99.90;;;-144.05;88.62;125687.94;5015953;28;20029;-78
2022/12/21 00:49:04;;;;;;;17.77;11.07;;;10.00;99.90;;;-144.05;88.42;125687.94;5015527;28;20033;-77
2022/12/21 00:51:34;;;;;;;14.10;10.35;;;10.10;99.90;;;-144.05;88.43;125687.94;5033284;28;20121;-76
2022/12/21 00:54:01;;;;;;;15.70;10.43;;;10.00;99.90;;;-144.05;88.70;125687.94;5032988;28;20025;-77
2022/12/21 00:56:27;;;;;;;16.73;11.63;;;10.00;99.90;;;-144.05;88.59;125687.94;5032966;28;20033;-78
2022/12/21 00:58:54;;;;;;;22.10;12.27;;;10.00;99.90;;;-144.05;88.71;125687.94;5032526;28;20079;-77
2022/12/21 01:01:25;;;;;;;18.08;11.52;;;10.00;99.90;;;-144.05;88.71;125687.94;5032852;28;20120;-77
2022/12/21 01:03:54;;;;;;;14.27;10.77;;;10.00;99.90;;;-144.05;88.60;125687.94;5034538;28;20087;-77
2022/12/21 01:06:26;;;;;;;16.08;10.73;;;10.00;99.90;;;-144.05;88.78;125687.94;5018638;28;20033;-77
2022/12/21 01:08:53;;;;;;;15.65;11.13;;;10.00;99.90;;;-144.05;88.95;125687.94;5036712;28;20029;-78
2022/12/21 01:11:19;;;;;;;16.38;11.05;;;9.90;99.90;;;-144.05;88.67;125687.94;5036542;28;20452;-76
2022/12/21 01:13:47;;;;;;;17.10;10.85;;;9.90;99.90;;;-144.05;89.08;125687.94;5036049;28;20029;-77
2022/12/21 01:16:25;;;;;;;17.38;11.35;;;9.90;99.90;;;-144.05;88.74;125687.94;5036322;28;20513;-76
2022/12/21 01:18:51;;;;;;;16.38;11.68;;;10.00;99.90;;;-144.05;88.58;125687.94;5036224;28;20483;-77
2022/12/21 01:21:26;;;;;;;19.65;11.43;;;9.90;99.90;;;-144.05;88.50;125687.94;5035797;28;20061;-76
2022/12/21 01:23:55;;;;;;;15.97;10.97;;;9.90;99.90;;;-144.05;89.34;125687.94;5035822;28;20108;-77
2022/12/21 01:26:23;;;;;;;15.65;11.18;;;9.90;99.90;;;-144.05;89.32;125687.94;5035972;28;20025;-76
2022/12/21 01:28:49;;;;;;;18.98;11.13;;;9.90;99.90;;;-144.05;89.24;125687.94;5036014;28;20037;-78
2022/12/21 01:31:15;;;;;;;18.38;12.30;;;9.90;99.90;;;-144.05;89.31;125687.94;5035909;28;20029;-77
2022/12/21 01:33:41;;;;;;;17.50;12.02;;;9.90;99.90;;;-144.05;89.07;125687.94;5035659;28;20507;-75
2022/12/21 01:36:15;;;;;;;21.80;13.35;;;9.90;99.90;;;-144.05;88.94;125687.94;5035732;28;20018;-77
2022/12/21 01:38:43;;;;;;;19.75;13.10;;;9.80;99.90;;;-144.05;89.12;125687.94;5035382;28;20558;-77
2022/12/21 01:41:26;;;;;;;22.15;13.10;;;9.90;99.90;;;-144.05;89.69;125687.94;5035496;28;20069;-78
2022/12/21 01:44:00;;;;;;;24.25;14.27;;;9.90;99.90;;;-144.05;89.16;125687.94;5018168;28;20029;-76
2022/12/21 01:46:47;;;;;;;20.85;13.05;;;9.90;99.90;;;-144.05;89.49;125687.94;5035693;28;20182;-75
2022/12/21 01:49:32;;;;;;;23.65;13.07;;;9.80;99.90;;;-144.05;89.43;125687.94;5035928;28;20469;-77
2022/12/21 01:52:10;;;;;;;21.63;13.98;;;9.80;99.90;;;-144.05;89.36;125687.94;5035382;28;20044;-77
2022/12/21 01:54:53;;;;;;;24.67;15.45;;;9.80;99.90;;;-144.05;89.36;125687.94;5035498;28;20032;-76
2022/12/21 01:57:19;;;;;;;23.42;14.77;;;9.80;99.90;;;-144.05;89.23;125687.94;5035550;28;20022;-78
2022/12/21 01:59:56;;;;;;;28.38;16.02;;;9.80;99.90;;;-144.05;89.24;125687.94;5035370;28;20029;-78
2022/12/21 02:02:45;;;;;;;23.13;14.65;;;9.80;99.90;;;-144.05;89.39;125687.94;5017507;28;20101;-78
2022/12/21 02:05:55;;;;;;;23.42;16.25;;;9.80;99.90;;;-144.05;89.64;125687.94;5017515;28;20090;-77
2022/12/21 02:08:22;;;;;;;27.33;15.65;;;9.80;99.90;;;-144.05;89.40;125687.94;5007627;28;20461;-77
2022/12/21 02:10:50;;;;;;;24.38;15.68;;;9.80;99.90;;;-144.05;89.41;125687.94;5017345;28;20096;-77
2022/12/21 02:13:17;;;;;;;30.70;18.13;;;9.70;99.90;;;-144.05;89.60;125687.94;5035572;28;20405;-78
2022/12/21 02:16:26;;;;;;;28.58;17.65;;;9.70;99.90;;;-144.05;89.60;125687.94;5033992;28;20029;-77
2022/12/21 02:19:13;;;;;;;27.45;16.02;;;9.80;99.90;;;-144.05;89.59;125687.94;5035408;28;20120;-78
2022/12/21 02:22:14;;;;;;;28.65;17.38;;;9.80;99.90;;;-144.05;90.15;125687.94;5017351;28;20025;-77
2022/12/21 02:25:32;;;;;;;30.35;17.77;;;9.70;99.90;;;-144.05;89.74;125687.94;5035016;28;20068;-77
2022/12/21 02:28:16;;;;;;;;;;;9.80;99.90;;;-144.05;89.79;125687.94;5035144;28;20037;-78
2022/12/21 02:31:19;;;;;;;26.05;15.63;;;9.70;99.90;;;-144.05;89.83;125687.94;5035337;28;19977;-76
2022/12/21 02:34:01;;;;;;;32.78;17.75;;;9.70;99.90;;;-144.05;89.87;125687.94;5034752;28;20034;-77
2022/12/21 02:37:14;;;;;;;34.65;18.15;;;9.70;99.90;;;-144.05;89.70;125687.94;5034557;28;20025;-77
2022/12/21 02:39:51;;;;;;;31.02;17.75;;;9.70;99.90;;;-144.05;89.90;125687.94;5034738;28;20044;-77
2022/12/21 02:45:56;;;;;;;35.83;17.98;;;9.70;99.90;;;-144.05;89.72;125687.94;5034217;28;20043;-77
2022/12/21 02:48:57;;;;;;;32.55;17.63;;;9.70;99.90;;;-144.05;89.68;125687.94;5034339;28;20029;-77
2022/12/21 02:51:49;;;;;;;36.92;18.38;;;9.70;99.90;;;-144.05;89.61;125687.94;5034135;28;20025;-77
2022/12/21 02:54:17;;;;;;;33.00;18.08;;;9.70;99.90;;;-144.05;89.81;125687.94;5034443;28;20040;-77
2022/12/21 02:56:43;;;;;;;37.90;19.02;;;9.60;99.90;;;-144.05;89.82;125687.94;5038886;28;20033;-74
2022/12/21 02:59:16;;;;;;;39.28;18.83;;;9.70;99.90;;;-144.05;89.72;125687.94;5040865;28;20531;-76
2022/12/21 03:03:47;;;;;;;35.75;18.38;;;9.70;99.90;;;-144.05;89.90;125687.94;5017471;28;20064;-77
2022/12/21 03:05:56;;;;;;;33.45;17.52;;;9.70;99.90;;;-144.05;89.74;125687.94;5037488;28;20404;-77
2022/12/21 03:09:02;;;;;;;35.65;19.00;;;9.60;99.90;;;-144.05;89.82;125687.94;5033999;28;20029;-77
2022/12/21 03:12:12;;;;;;;35.17;17.70;;;9.60;99.90;;;-144.05;89.79;125687.94;5033140;28;20028;-77
2022/12/21 03:15:25;;;;;;;32.67;18.30;;;9.60;99.90;;;-144.05;89.86;125687.94;5008104;28;20037;-77
2022/12/21 03:18:25;;;;;;;33.85;17.45;;;9.60;99.90;;;-144.05;89.82;125687.94;5035950;28;20060;-75
2022/12/21 03:21:28;;;;;;;29.92;15.60;;;9.60;99.90;;;-144.05;89.82;125687.94;5043739;28;20033;-76
2022/12/21 03:24:45;;;;;;;33.35;16.63;;;9.50;99.90;;;-144.05;89.96;125687.94;5032050;28;20096;-76
2022/12/21 03:27:21;;;;;;;28.52;14.77;;;9.60;99.90;;;-144.05;89.84;125687.94;5031577;28;20076;-75
2022/12/21 03:30:03;;;;;;;32.95;16.75;;;9.60;99.90;;;-144.05;89.80;125687.94;5032857;28;20479;-76
2022/12/21 03:32:45;;;;;;;25.67;13.73;;;9.60;99.90;;;-144.05;90.16;125687.94;5033173;28;20022;-76
2022/12/21 03:35:35;;;;;;;27.02;14.45;;;9.60;99.90;;;-144.05;90.24;125687.94;5032220;28;20044;-76
2022/12/21 03:38:11;;;;;;;24.75;13.75;;;9.60;99.90;;;-144.05;90.02;125687.94;5032225;28;20124;-77
2022/12/21 03:40:46;;;;;;;25.52;13.50;;;9.60;99.90;;;-144.05;90.11;125687.94;5031926;28;20025;-76
2022/12/21 03:43:30;;;;;;;24.55;13.32;;;9.60;99.90;;;-144.05;90.20;125687.94;5032284;28;20496;-76
2022/12/21 03:46:08;;;;;;;25.13;12.57;;;9.60;99.90;;;-144.05;90.03;125687.94;5031721;28;20060;-76
2022/12/21 03:48:55;;;;;;;23.00;12.60;;;9.60;99.90;;;-144.05;90.22;125687.94;5031619;28;20041;-76
2022/12/21 03:52:05;;;;;;;26.50;12.90;;;9.60;99.90;;;-144.05;90.12;125687.94;5031806;28;20035;-77
2022/12/21 03:54:47;;;;;;;23.27;12.55;;;9.60;99.90;;;-144.05;90.29;125687.94;4933739;29;20039;-77
2022/12/21 03:57:17;;;;;;;21.48;12.85;;;9.50;99.90;;;-144.05;90.11;125687.94;5029452;28;20064;-75
2022/12/21 03:59:51;;;;;;;24.95;13.27;;;9.50;99.90;;;-144.05;90.07;125687.94;5033391;28;20030;-77
2022/12/21 04:02:37;;;;;;;22.25;13.52;;;9.50;99.90;;;-144.05;90.26;125687.94;5033324;28;20105;-77
2022/12/21 04:05:21;;;;;;;26.15;12.95;;;9.50;99.90;;;-144.05;90.21;125687.94;5015622;28;20554;-75
2022/12/21 04:07:52;;;;;;;27.70;13.70;;;9.50;99.90;;;-144.05;90.54;125687.94;5032679;28;20446;-76
2022/12/21 04:10:22;;;;;;;28.50;14.50;;;9.50;99.90;;;-144.05;90.12;125687.94;5032944;28;20025;-77
2022/12/21 04:12:48;;;;;;;28.98;14.57;;;9.50;99.90;;;-144.05;90.17;125687.94;5014738;28;20444;-77
2022/12/21 04:16:03;;;;;;;26.85;14.48;;;9.50;99.90;;;-144.05;90.01;125687.94;5032872;28;20072;-77
2022/12/21 04:18:13;;;;;;;27.75;13.98;;;9.50;99.90;;;-144.05;90.21;125687.94;5032499;28;20029;-77
2022/12/21 04:20:39;;;;;;;27.38;13.98;;;9.50;99.90;;;-144.05;90.26;125687.94;5014845;28;20045;-76
2022/12/21 04:28:35;;;;;;;34.42;15.48;;;9.50;99.90;;;-144.05;90.22;125687.94;5032751;28;20040;-77
2022/12/21 04:31:01;;;;;;;28.80;14.32;;;9.50;99.90;;;-144.05;90.14;125687.94;5033757;28;20033;-77
2022/12/21 04:33:30;;;;;;;31.10;15.82;;;9.50;99.90;;;-144.05;90.27;125687.94;5032795;28;20022;-76
2022/12/21 04:38:44;;;;;;;37.50;16.42;;;9.50;99.90;;;-144.05;90.12;125687.94;5034665;28;20047;-76
2022/12/21 04:41:12;;;;;;;33.25;14.82;;;9.50;99.90;;;-144.05;90.35;125687.94;5036223;28;20095;-74
2022/12/21 04:43:41;;;;;;;37.85;16.17;;;9.50;99.90;;;-144.05;90.48;125687.94;5017816;28;20033;-77
2022/12/21 04:46:13;;;;;;;34.45;15.48;;;9.50;99.90;;;-144.05;90.34;125687.94;5036184;28;20087;-76
2022/12/21 04:48:41;;;;;;;34.30;15.55;;;9.50;99.90;;;-144.05;90.39;125687.94;5035542;28;20068;-77
2022/12/21 04:51:22;;;;;;;32.63;15.30;;;9.50;99.90;;;-144.05;90.35;125687.94;5035978;28;20029;-76
2022/12/21 04:53:49;;;;;;;31.65;14.27;;;9.50;99.90;;;-144.05;90.29;125687.94;5036287;28;20443;-76
2022/12/21 04:56:16;;;;;;;34.08;14.57;;;9.50;99.90;;;-144.05;90.37;125687.94;5036156;28;20468;-76
2022/12/21 04:58:44;;;;;;;30.75;14.35;;;9.50;99.90;;;-144.05;90.55;125687.94;5017567;28;20057;-76
2022/12/21 05:01:18;;;;;;;33.85;14.88;;;9.60;99.90;;;-144.05;90.50;125687.94;5035610;28;20068;-75
2022/12/21 05:03:45;;;;;;;27.50;13.80;;;9.50;99.90;;;-144.05;90.17;125687.94;5035096;28;20041;-76
2022/12/21 05:06:14;;;;;;;30.00;13.88;;;9.50;99.90;;;-144.05;90.47;125687.94;5035182;28;20044;-75
2022/12/21 05:08:40;;;;;;;32.40;14.70;;;9.50;99.90;;;-144.05;90.42;125687.94;5035331;28;20045;-75
2022/12/21 05:11:21;;;;;;;33.13;14.30;;;9.50;99.90;;;-144.05;90.24;125687.94;5035176;28;20068;-74
2022/12/21 05:13:48;;;;;;;35.38;15.60;;;9.50;99.90;;;-144.05;90.47;125687.94;5035251;28;20480;-76
2022/12/21 05:16:20;;;;;;;29.20;14.35;;;9.50;99.90;;;-144.05;90.31;125687.94;5034822;28;20037;-74
2022/12/21 05:18:48;;;;;;;31.73;14.77;;;9.50;99.90;;;-144.05;90.17;125687.94;5017011;28;20026;-75
2022/12/21 05:21:15;;;;;;;28.52;14.13;;;9.50;99.90;;;-144.05;90.16;125687.94;5034805;28;20060;-76
2022/12/21 05:23:41;;;;;;;27.90;13.77;;;9.50;99.90;;;-144.05;90.47;125687.94;5035149;28;20424;-76
2022/12/21 05:26:09;;;;;;;29.83;14.45;;;9.50;99.90;;;-144.05;90.55;125687.94;5034877;28;20021;-75
2022/12/21 05:28:35;;;;;;;30.88;13.73;;;9.50;99.90;;;-144.05;90.34;125687.94;5034406;28;20116;-76
2022/12/21 05:31:04;;;;;;;26.20;14.40;;;9.50;99.90;;;-144.05;90.05;125687.94;5034531;28;20105;-77
2022/12/21 05:33:31;;;;;;;28.45;14.50;;;9.50;99.90;;;-144.05;90.24;125687.94;5034773;28;20022;-76
2022/12/21 05:36:00;;;;;;;28.83;14.13;;;9.50;99.90;;;-144.05;90.22;125687.94;5034612;28;20018;-76
2022/12/21 05:38:26;;;;;;;26.92;13.43;;;9.40;99.90;;;-144.05;90.55;125687.94;5040140;28;20039;-74
2022/12/21 05:40:51;;;;;;;29.02;14.80;;;9.50;99.90;;;-144.05;90.67;125687.94;5042369;28;20049;-75
2022/12/21 05:43:17;;;;;;;26.40;14.27;;;9.50;99.90;;;-144.05;90.49;125687.94;5040030;28;20026;-74
2022/12/21 05:45:44;;;;;;;32.75;14.60;;;9.40;99.90;;;-144.05;90.61;125687.94;5050019;28;20059;-76
2022/12/21 05:48:10;;;;;;;32.17;15.30;;;9.40;99.90;;;-144.05;90.85;125687.94;5034770;28;20034;-77
2022/12/21 05:50:41;;;;;;;29.33;14.57;;;9.40;99.90;;;-144.05;90.72;125687.94;5016634;28;20025;-76
2022/12/21 05:53:09;;;;;;;28.30;14.00;;;9.40;99.90;;;-144.05;90.72;125687.94;5035738;28;20175;-75
2022/12/21 05:55:35;;;;;;;26.85;14.35;;;9.40;99.90;;;-144.05;91.05;125687.94;5036298;28;20066;-78
2022/12/21 05:58:02;;;;;;;27.95;14.73;;;9.40;99.90;;;-144.05;90.83;125687.94;5036993;28;20120;-77
2022/12/21 06:00:28;;;;;;;35.92;15.98;;;9.40;99.90;;;-144.05;90.79;125687.94;5017970;28;20171;-74
2022/12/21 06:02:54;;;;;;;28.55;13.88;;;9.40;99.90;;;-144.05;90.86;125687.94;5035206;28;20041;-76
2022/12/21 06:05:20;;;;;;;29.20;14.65;;;9.40;99.90;;;-144.05;90.46;125687.94;5034987;28;20407;-76
2022/12/21 06:07:46;;;;;;;30.55;14.48;;;9.40;99.90;;;-144.05;91.07;125687.94;5034890;28;20120;-75
2022/12/21 06:10:12;;;;;;;26.83;13.55;;;9.40;99.90;;;-144.05;90.82;125687.94;5034652;28;20115;-76
2022/12/21 06:12:38;;;;;;;28.05;14.98;;;9.40;99.90;;;-144.05;90.66;125687.94;5016676;28;20021;-75
2022/12/21 06:15:04;;;;;;;28.92;14.00;;;9.40;99.90;;;-144.05;90.88;125687.94;5034690;28;20037;-79
2022/12/21 06:17:30;;;;;;;33.90;14.75;;;9.40;99.90;;;-144.05;90.80;125687.94;5037037;28;20044;-75
2022/12/21 06:19:57;;;;;;;32.97;14.43;;;9.30;99.90;;;-144.05;90.56;125687.94;5033835;28;20451;-76
2022/12/21 06:22:22;;;;;;;31.23;14.00;;;9.30;99.90;;;-144.05;90.92;125687.94;5033814;28;20441;-76
2022/12/21 06:24:48;;;;;;;30.38;13.07;;;9.40;99.90;;;-144.05;90.32;125687.94;5034037;28;20037;-76
2022/12/21 06:27:14;;;;;;;28.80;13.13;;;9.30;99.90;;;-144.05;90.55;125687.94;5034131;28;20076;-74
2022/12/21 06:29:40;;;;;;;29.08;13.32;;;9.30;99.90;;;-144.05;90.77;125687.94;5033926;28;20101;-75
2022/12/21 06:32:06;;;;;;;31.67;13.00;;;9.30;99.90;;;-144.05;90.45;125687.94;5033706;28;20033;-76
2022/12/21 06:34:31;;;;;;;26.45;12.52;;;9.30;99.90;;;-144.05;90.39;125687.94;5034034;28;20027;-75
2022/12/21 06:36:57;;;;;;;28.67;13.10;;;9.30;99.90;;;-144.05;90.42;125687.94;5034327;28;20299;-75
2022/12/21 06:39:23;;;;;;;24.25;11.88;;;9.30;99.90;;;-144.05;90.60;125687.94;5033627;28;20420;-76
2022/12/21 06:41:49;;;;;;;29.25;12.15;;;9.20;99.90;;;-144.05;90.09;125687.94;5033652;28;20026;-76
2022/12/21 06:44:15;;;;;;;29.48;12.55;;;9.20;99.90;;;-144.05;90.39;125687.94;5015549;28;20033;-75
2022/12/21 06:46:41;;;;;;;27.08;13.32;;;9.10;99.90;;;-144.05;90.56;125687.94;5033287;28;20092;-74
2022/12/21 06:49:06;;;;;;;29.17;12.98;;;9.20;99.90;;;-144.05;90.30;125687.94;5033552;28;20451;-73
2022/12/21 06:51:32;;;;;;;29.80;12.85;;;9.10;99.90;;;-144.05;90.44;125687.94;5033268;28;20087;-75
2022/12/21 06:53:58;;;;;;;30.45;12.55;;;9.20;99.90;;;-144.05;90.61;125687.94;5032970;28;20076;-74
2022/12/21 06:56:31;;;;;;;28.70;12.55;;;9.20;99.90;;;-144.05;90.66;125687.94;5032830;28;20036;-76
2022/12/21 06:58:58;;;;;;;27.75;12.50;;;9.20;99.90;;;-144.05;90.65;125687.94;5032841;28;20473;-75
2022/12/21 07:01:33;;;;;;;24.48;11.90;;;9.20;99.90;;;-144.05;90.64;125687.94;5032049;28;20157;-75
2022/12/21 07:03:59;;;;;;;22.52;10.30;;;9.20;99.90;;;-144.05;90.52;125687.94;5032744;28;20033;-75
2022/12/21 07:06:29;;;;;;;28.38;12.38;;;9.20;99.90;;;-144.05;90.66;125687.94;5032871;28;20053;-74
2022/12/21 07:08:56;;;;;;;24.77;11.23;;;9.20;99.90;;;-144.05;90.75;125687.94;5032817;28;20025;-75
2022/12/21 07:11:28;;;;;;;28.90;12.00;;;9.20;99.90;;;-144.05;90.85;125687.94;5032833;28;20025;-76
2022/12/21 07:13:55;;;;;;;26.98;13.25;;;9.20;99.90;;;-144.05;90.80;125687.94;5032598;28;20075;-75
2022/12/21 07:16:22;;;;;;;31.67;12.13;;;9.20;99.90;;;-144.05;90.94;125687.94;5032742;28;20029;-75
2022/12/21 07:18:49;;;;;;;32.78;13.52;;;9.20;99.90;;;-144.05;90.80;125687.94;5014727;28;20116;-74
2022/12/21 07:21:19;;;;;;;28.45;12.02;;;9.20;99.90;;;-144.05;90.72;125687.94;5032637;28;20029;-76
2022/12/21 07:23:47;;;;;;;27.55;12.85;;;9.20;99.90;;;-144.05;91.08;125687.94;5032540;28;20033;-75
2022/12/21 07:26:20;;;;;;;27.83;12.05;;;9.20;99.90;;;-144.05;91.01;125687.94;5032763;28;20052;-76
2022/12/21 07:28:48;;;;;;;24.70;11.20;;;9.20;99.90;;;-144.05;91.01;125687.94;5015009;28;20120;-75
2022/12/21 07:31:25;;;;;;;20.00;9.38;;;9.20;99.90;;;-144.05;90.87;125687.94;5032703;28;20034;-74
2022/12/21 07:33:53;;;;;;;21.00;10.27;;;9.30;99.90;;;-144.05;90.88;125687.94;5032907;28;20061;-74
2022/12/21 07:36:19;;;;;;;26.67;10.93;;;9.30;99.90;;;-144.05;90.79;125687.94;5032881;28;20123;-75
2022/12/21 07:38:45;;;;;;;23.40;10.70;;;9.30;99.90;;;-144.05;90.83;125687.94;5032658;28;20065;-74
2022/12/21 07:41:16;;;;;;;23.65;9.85;;;9.30;99.90;;;-144.05;90.93;125687.94;5032616;28;20314;-73
2022/12/21 07:43:43;;;;;;;21.50;10.15;;;9.30;99.90;;;-144.05;91.18;125687.94;5032549;28;20584;-73
2022/12/21 07:46:10;;;;;;;20.08;9.68;;;9.30;99.90;;;-144.05;90.93;125687.94;5032889;28;20120;-76
2022/12/21 07:48:37;;;;;;;24.90;11.77;;;9.30;99.90;;;-144.05;90.92;125687.94;5032273;28;20499;-76
2022/12/21 07:51:04;;;;;;;22.75;11.13;;;9.30;99.90;;;-144.05;90.72;125687.94;5032237;28;20090;-74
2022/12/21 07:53:31;;;;;;;21.60;10.45;;;9.30;99.90;;;-144.05;90.77;125687.94;5014672;28;20091;-74
2022/12/21 07:56:10;;;;;;;21.92;10.38;;;9.30;99.90;;;-144.05;90.69;125687.94;5032279;28;20021;-75
2022/12/21 07:58:36;;;;;;;25.00;10.70;;;9.20;99.90;;;-144.05;90.92;125687.94;5032775;28;20068;-76
2022/12/21 08:01:10;;;;;;;20.23;9.77;;;9.30;99.90;;;-144.05;90.75;125687.94;5032698;28;20445;-75
2022/12/21 08:03:38;;;;;;;16.48;8.30;;;9.30;99.90;;;-144.05;90.90;125687.94;5032168;28;20038;-74
2022/12/21 08:06:06;;;;;;;18.75;8.82;;;9.30;99.90;;;-144.05;90.91;125687.94;5031957;28;20026;-74
2022/12/21 08:08:33;;;;;;;21.40;8.75;;;9.30;99.90;;;-144.05;90.75;125687.94;5037766;28;20044;-75
2022/12/21 08:10:59;;;;;;;18.27;9.20;;;9.30;99.90;;;-144.05;90.70;125687.94;5054682;28;20056;-75
2022/12/21 08:13:25;;;;;;;21.42;9.68;;;9.30;99.90;;;-144.05;90.39;125687.94;5035069;28;20037;-75
2022/12/21 08:16:04;;;;;;;33.50;17.98;;;9.30;99.90;;;-144.05;90.04;125687.94;5036738;28;20076;-76
2022/12/21 08:18:32;;;;;;;23.55;11.25;;;9.30;99.90;;;-144.05;89.67;125687.94;5036075;28;20071;-75
2022/12/21 08:20:58;;;;;;;31.58;14.80;;;9.30;99.90;;;-144.05;89.48;125687.94;5035916;28;20080;-76
2022/12/21 08:23:24;;;;;;;18.33;10.85;;;9.30;99.90;;;-144.05;89.63;125687.94;5036125;28;20029;-75
2022/12/21 08:25:50;;;;;;;30.45;13.43;;;9.30;99.90;;;-144.05;89.57;125687.94;5036758;28;20028;-74
2022/12/21 08:28:17;;;;;;;27.30;12.25;;;9.30;99.90;;;-144.05;89.35;125687.94;5036649;28;20342;-75
2022/12/21 08:30:43;;;;;;;28.25;14.05;;;9.30;99.90;;;-144.05;89.31;125687.94;5036580;28;20025;-75
2022/12/21 08:33:09;;;;;;;36.08;15.38;;;9.30;99.90;;;-144.05;89.11;125687.94;5036421;28;20116;-76
2022/12/21 08:35:37;;;;;;;29.38;12.63;;;9.30;99.90;;;-144.05;89.04;125687.94;5037111;28;20068;-76
2022/12/21 08:38:03;;;;;;;30.52;13.85;;;9.30;99.90;;;-144.05;89.00;125687.94;5037129;28;20532;-75
2022/12/21 08:40:28;;;;;;;31.10;12.40;;;9.40;99.90;;;-144.05;89.14;125687.94;5037131;28;20075;-76
2022/12/21 08:42:54;;;;;;;41.85;17.58;;;9.30;99.90;;;-144.05;88.91;125687.94;5019199;28;20061;-76
2022/12/21 08:45:20;;;;;;;31.25;13.80;;;9.40;99.90;;;-144.05;89.18;125687.94;5037341;28;20036;-75
2022/12/21 08:47:48;;;;;;;30.48;13.18;;;9.40;99.90;;;-144.05;88.91;125687.94;5036659;28;20092;-73
2022/12/21 08:50:14;;;;;;;27.67;12.88;;;9.40;99.90;;;-144.05;88.76;125687.94;5036959;28;20029;-74
2022/12/21 08:52:40;;;;;;;34.17;14.73;;;9.50;99.90;;;-144.05;88.97;125687.94;5037354;28;20029;-74
2022/12/21 08:55:07;;;;;;;32.33;14.52;;;9.50;99.90;;;-144.05;88.96;125687.94;5019408;28;20026;-75
2022/12/21 08:57:33;;;;;;;32.88;13.30;;;9.50;99.90;;;-144.05;88.92;125687.94;5037004;28;20037;-75
2022/12/21 08:59:59;;;;;;;21.83;10.82;;;9.60;99.90;;;-144.05;88.84;125687.94;5036854;28;20029;-75
2022/12/21 09:02:24;;;;;;;26.02;10.35;;;9.60;99.90;;;-144.05;88.87;125687.94;5037090;28;20029;-75
2022/12/21 09:04:50;;;;;;;31.23;12.95;;;9.60;99.90;;;-144.05;88.29;125687.94;5036553;28;20493;-76
2022/12/21 09:07:16;;;;;;;36.60;14.55;;;9.70;99.90;;;-144.05;88.50;125687.94;5037034;28;20037;-75
2022/12/21 09:09:44;;;;;;;25.02;11.43;;;9.60;99.90;;;-144.05;88.47;125687.94;5036398;28;20026;-73
2022/12/21 09:12:10;;;;;;;92.30;25.90;;;9.70;99.90;;;-144.05;88.53;125687.94;5037192;28;20112;-75
2022/12/21 09:14:36;;;;;;;53.67;21.65;;;9.60;99.90;;;-144.05;87.85;125687.94;5036785;28;20064;-74
2022/12/21 09:17:02;;;;;;;45.65;18.33;;;9.60;99.90;;;-144.05;87.55;125687.94;5036767;28;20033;-74
2022/12/21 09:19:27;;;;;;;97.05;33.75;;;9.40;99.90;;;-144.05;87.43;125687.94;5037023;28;20029;-74
2022/12/21 09:21:53;;;;;;;56.42;21.80;;;9.30;99.90;;;-144.05;87.83;125687.94;5036994;28;20048;-73
2022/12/21 09:24:19;;;;;;;83.97;30.58;;;9.30;99.90;;;-144.05;87.47;125687.94;5035442;28;20106;-74
2022/12/21 09:26:45;;;;;;;96.47;36.67;;;9.30;99.90;;;-144.05;87.07;125687.94;5036617;28;20175;-74
2022/12/21 09:29:11;;;;;;;126.95;47.17;;;9.20;99.90;;;-144.05;87.00;125687.94;5036447;28;20021;-74
2022/12/21 09:31:37;;;;;;;119.38;45.75;;;9.20;99.90;;;-144.05;86.88;125687.94;5019395;28;20021;-73
2022/12/21 09:34:03;;;;;;;92.20;37.30;;;9.20;99.90;;;-144.05;86.53;125687.94;5036724;28;20116;-73
2022/12/21 09:36:29;;;;;;;78.15;34.28;;;9.20;99.90;;;-144.05;86.55;125687.94;5036051;28;20062;-73
2022/12/21 09:38:55;;;;;;;79.13;28.02;;;9.10;99.90;;;-144.05;86.82;125687.94;5035967;28;20030;-76
2022/12/21 09:41:48;;;;;;;79.45;29.10;;;9.20;99.90;;;-144.05;86.74;125687.94;5035874;28;20476;-74
2022/12/21 09:44:32;;;;;;;72.95;26.35;;;9.10;99.90;;;-144.05;86.92;125687.94;5035737;28;20022;-76
2022/12/21 09:47:10;;;;;;;79.55;29.38;;;9.10;99.90;;;-144.05;86.65;125687.94;5036472;28;20029;-75
2022/12/21 09:49:56;;;;;;;65.72;27.85;;;9.10;99.90;;;-144.05;86.69;125687.94;5035924;28;20079;-75
2022/12/21 09:53:01;;;;;;;;;;;9.10;99.90;;;-144.05;86.74;125687.94;5036879;28;20464;-76
2022/12/21 09:55:42;;;;;;;71.03;26.48;;;9.10;99.90;;;-144.05;86.82;125687.94;5001464;28;19913;-75
2022/12/21 09:58:21;;;;;;;68.20;24.77;;;9.20;99.90;;;-144.05;86.72;125687.94;5035250;28;20283;-76
2022/12/21 10:01:11;;;;;;;72.50;24.75;;;9.20;99.90;;;-144.05;87.02;125687.94;5034937;28;20152;-76
2022/12/21 10:04:10;;;;;;;77.00;27.65;;;9.30;99.90;;;-144.05;87.16;125687.94;5034756;28;20034;-74
2022/12/21 10:07:07;;;;;;;70.65;25.80;;;9.40;99.90;;;-144.05;86.94;125687.94;5034965;28;20040;-74
2022/12/21 10:09:58;;;;;;;76.80;26.88;;;9.40;99.90;;;-144.05;86.87;125687.94;5034885;28;20032;-74
2022/12/21 10:12:47;;;;;;;65.45;25.63;;;9.40;99.90;;;-144.05;86.72;125687.94;5034795;28;20478;-75
2022/12/21 10:16:12;;;;;;;68.60;25.17;;;9.40;99.90;;;-144.05;87.11;125687.94;5034570;28;20422;-74
2022/12/21 10:19:17;;;;;;;63.88;25.23;;;9.40;99.90;;;-144.05;86.95;125687.94;4973801;28;20041;-75
2022/12/21 10:22:13;;;;;;;67.68;24.00;;;9.30;99.90;;;-144.05;86.71;125687.94;5034938;28;20036;-74
2022/12/21 10:24:53;;;;;;;67.28;25.75;;;9.30;99.90;;;-144.05;86.95;125687.94;5016823;28;20038;-73
2022/12/21 10:27:45;;;;;;;64.65;22.40;;;9.30;99.90;;;-144.05;87.48;125687.94;5034866;28;20032;-75
2022/12/21 10:30:17;;;;;;;56.33;20.73;;;9.30;99.90;;;-144.05;87.12;125687.94;5035340;28;20025;-73
2022/12/21 10:32:49;;;;;;;51.50;18.65;;;9.30;99.90;;;-144.05;87.72;125687.94;5039075;28;20053;-74